createdAt,value
2023-01-10T00:00:40.026Z,1006.05
2023-01-10T00:01:38.769Z,1006.12
2023-01-10T00:02:38.770Z,1006.14
2023-01-10T00:03:38.661Z,1006.15
2023-01-10T00:04:40.871Z,1006.13
2023-01-10T00:05:40.239Z,1006.14
2023-01-10T00:06:39.537Z,1006.14
2023-01-10T00:07:38.670Z,1006.13
2023-01-10T00:08:39.988Z,1006.13
2023-01-10T00:09:38.568Z,1006.16
2023-01-10T00:10:39.485Z,1006.19
2023-01-10T00:11:39.487Z,1006.16
2023-01-10T00:12:39.470Z,1006.22
2023-01-10T00:13:38.520Z,1006.21
2023-01-10T00:14:39.418Z,1006.24
2023-01-10T00:15:39.947Z,1006.26
2023-01-10T00:16:40.416Z,1006.23
2023-01-10T00:17:38.765Z,1006.22
2023-01-10T00:18:38.611Z,1006.22
2023-01-10T00:19:39.392Z,1006.21
2023-01-10T00:20:39.365Z,1006.25
2023-01-10T00:21:39.354Z,1006.30
2023-01-10T00:22:38.441Z,1006.32
2023-01-10T00:23:38.522Z,1006.34
2023-01-10T00:24:39.440Z,1006.40
2023-01-10T00:25:38.412Z,1006.39
2023-01-10T00:26:39.895Z,1006.42
2023-01-10T00:27:39.814Z,1006.39
2023-01-10T00:28:39.819Z,1006.41
2023-01-10T00:29:38.467Z,1006.48
2023-01-10T00:30:39.292Z,1006.49
2023-01-10T00:31:38.415Z,1006.50
2023-01-10T00:32:39.256Z,1006.58
2023-01-10T00:33:39.761Z,1006.58
2023-01-10T00:34:39.773Z,1006.65
2023-01-10T00:35:39.728Z,1006.68
2023-01-10T00:36:39.724Z,1006.72
2023-01-10T00:37:39.187Z,1006.76
2023-01-10T00:38:39.205Z,1006.80
2023-01-10T00:39:39.217Z,1006.81
2023-01-10T00:40:38.264Z,1006.85
2023-01-10T00:41:39.685Z,1006.87
2023-01-10T00:42:39.679Z,1006.88
2023-01-10T00:43:39.156Z,1006.86
2023-01-10T00:44:38.314Z,1006.86
2023-01-10T00:45:39.626Z,1006.85
2023-01-10T00:46:38.505Z,1006.86
2023-01-10T00:47:39.087Z,1006.90
2023-01-10T00:48:39.179Z,1006.89
2023-01-10T00:49:39.591Z,1006.93
2023-01-10T00:50:39.055Z,1006.91
2023-01-10T00:51:39.557Z,1006.97
2023-01-10T00:52:39.528Z,1006.92
2023-01-10T00:53:40.010Z,1007.01
2023-01-10T00:54:39.562Z,1006.99
2023-01-10T00:55:39.517Z,1007.02
2023-01-10T00:56:39.487Z,1007.07
2023-01-10T00:57:39.479Z,1007.08
2023-01-10T00:58:38.969Z,1007.15
2023-01-10T00:59:39.451Z,1007.12
2023-01-10T01:00:39.488Z,1007.13
2023-01-10T01:01:39.561Z,1007.09
2023-01-10T01:02:39.034Z,1007.06
2023-01-10T01:03:38.935Z,1007.10
2023-01-10T01:04:39.438Z,1007.19
2023-01-10T01:05:39.413Z,1007.15
2023-01-10T01:06:39.429Z,1007.22
2023-01-10T01:07:39.399Z,1007.15
2023-01-10T01:08:39.361Z,1007.24
2023-01-10T01:09:39.360Z,1007.25
2023-01-10T01:10:38.849Z,1007.29
2023-01-10T01:11:39.340Z,1007.32
2023-01-10T01:12:39.382Z,1007.36
2023-01-10T01:13:38.872Z,1007.38
2023-01-10T01:14:39.293Z,1007.39
2023-01-10T01:15:39.315Z,1007.44
2023-01-10T01:16:37.864Z,1007.49
2023-01-10T01:17:38.772Z,1007.50
2023-01-10T01:18:39.294Z,1007.53
2023-01-10T01:19:39.684Z,1007.56
2023-01-10T01:20:39.211Z,1007.57
2023-01-10T01:21:39.225Z,1007.61
2023-01-10T01:22:38.721Z,1007.66
2023-01-10T01:23:39.211Z,1007.72
2023-01-10T01:24:39.253Z,1007.73
2023-01-10T01:25:39.245Z,1007.75
2023-01-10T01:26:39.187Z,1007.79
2023-01-10T01:27:39.176Z,1007.86
2023-01-10T01:28:38.644Z,1007.86
2023-01-10T01:29:43.331Z,1007.92
2023-01-10T01:30:40.142Z,1007.93
2023-01-10T01:31:39.120Z,1007.97
2023-01-10T01:32:39.142Z,1008.00
2023-01-10T01:33:39.121Z,1008.02
2023-01-10T01:34:39.090Z,1008.09
2023-01-10T01:35:39.085Z,1008.17
2023-01-10T01:36:39.098Z,1008.18
2023-01-10T01:37:38.605Z,1008.17
2023-01-10T01:38:39.058Z,1008.22
2023-01-10T01:39:39.042Z,1008.26
2023-01-10T01:40:39.014Z,1008.26
2023-01-10T01:41:38.516Z,1008.27
2023-01-10T01:42:38.525Z,1008.29
2023-01-10T01:43:38.992Z,1008.27
2023-01-10T01:44:39.487Z,1008.27
2023-01-10T01:45:38.485Z,1008.28
2023-01-10T01:46:39.050Z,1008.31
2023-01-10T01:47:38.956Z,1008.31
2023-01-10T01:48:38.471Z,1008.30
2023-01-10T01:49:38.499Z,1008.26
2023-01-10T01:50:38.408Z,1008.28
2023-01-10T01:51:38.395Z,1008.34
2023-01-10T01:52:38.896Z,1008.34
2023-01-10T01:53:38.875Z,1008.37
2023-01-10T01:54:38.950Z,1008.34
2023-01-10T01:55:38.851Z,1008.38
2023-01-10T01:56:38.856Z,1008.39
2023-01-10T01:57:38.846Z,1008.37
2023-01-10T01:58:38.328Z,1008.42
2023-01-10T01:59:38.856Z,1008.44
2023-01-10T02:00:38.332Z,1008.42
2023-01-10T02:01:38.982Z,1008.43
2023-01-10T02:02:38.851Z,1008.48
2023-01-10T02:03:38.312Z,1008.44
2023-01-10T02:04:38.258Z,1008.40
2023-01-10T02:05:38.271Z,1008.41
2023-01-10T02:06:38.867Z,1008.43
2023-01-10T02:07:38.760Z,1008.48
2023-01-10T02:08:39.209Z,1008.43
2023-01-10T02:09:38.730Z,1008.43
2023-01-10T02:10:38.203Z,1008.38
2023-01-10T02:11:38.700Z,1008.44
2023-01-10T02:12:38.698Z,1008.41
2023-01-10T02:13:38.691Z,1008.41
2023-01-10T02:14:37.580Z,1008.40
2023-01-10T02:15:38.680Z,1008.39
2023-01-10T02:16:37.222Z,1008.42
2023-01-10T02:17:38.168Z,1008.44
2023-01-10T02:18:38.114Z,1008.53
2023-01-10T02:19:38.596Z,1008.51
2023-01-10T02:20:38.092Z,1008.47
2023-01-10T02:21:38.074Z,1008.51
2023-01-10T02:22:38.065Z,1008.51
2023-01-10T02:23:38.090Z,1008.50
2023-01-10T02:24:38.677Z,1008.52
2023-01-10T02:25:38.572Z,1008.51
2023-01-10T02:26:38.536Z,1008.54
2023-01-10T02:27:38.053Z,1008.56
2023-01-10T02:28:38.495Z,1008.50
2023-01-10T02:29:38.493Z,1008.55
2023-01-10T02:30:38.493Z,1008.63
2023-01-10T02:31:38.557Z,1008.64
2023-01-10T02:32:45.930Z,1008.61
2023-01-10T02:33:39.443Z,1008.62
2023-01-10T02:34:38.438Z,1008.62
2023-01-10T02:35:38.434Z,1008.63
2023-01-10T02:36:37.926Z,1008.63
2023-01-10T02:37:38.402Z,1008.65
2023-01-10T02:38:37.886Z,1008.59
2023-01-10T02:39:38.370Z,1008.67
2023-01-10T02:40:37.884Z,1008.68
2023-01-10T02:41:37.867Z,1008.67
2023-01-10T02:42:37.929Z,1008.69
2023-01-10T02:43:38.398Z,1008.67
2023-01-10T02:44:37.815Z,1008.60
2023-01-10T02:45:37.836Z,1008.60
2023-01-10T02:46:37.968Z,1008.64
2023-01-10T02:47:38.290Z,1008.62
2023-01-10T02:48:37.139Z,1008.63
2023-01-10T02:49:38.299Z,1008.65
2023-01-10T02:50:37.790Z,1008.67
2023-01-10T02:51:38.262Z,1008.71
2023-01-10T02:52:38.249Z,1008.69
2023-01-10T02:53:37.302Z,1008.67
2023-01-10T02:54:38.324Z,1008.69
2023-01-10T02:55:38.220Z,1008.70
2023-01-10T02:56:37.725Z,1008.70
2023-01-10T02:57:38.194Z,1008.70
2023-01-10T02:58:37.677Z,1008.71
2023-01-10T02:59:37.667Z,1008.67
2023-01-10T03:00:38.209Z,1008.68
2023-01-10T03:01:37.894Z,1008.72
2023-01-10T03:02:37.250Z,1008.77
2023-01-10T03:03:38.122Z,1008.73
2023-01-10T03:04:37.661Z,1008.77
2023-01-10T03:05:38.109Z,1008.80
2023-01-10T03:06:37.308Z,1008.78
2023-01-10T03:07:38.068Z,1008.81
2023-01-10T03:08:38.092Z,1008.82
2023-01-10T03:09:38.058Z,1008.83
2023-01-10T03:10:37.561Z,1008.80
2023-01-10T03:11:38.267Z,1008.83
2023-01-10T03:12:38.539Z,1008.79
2023-01-10T03:13:37.531Z,1008.82
2023-01-10T03:14:37.545Z,1008.85
2023-01-10T03:15:37.509Z,1008.88
2023-01-10T03:16:37.528Z,1008.87
2023-01-10T03:17:37.481Z,1008.95
2023-01-10T03:18:37.989Z,1008.94
2023-01-10T03:19:36.524Z,1008.94
2023-01-10T03:20:37.953Z,1008.95
2023-01-10T03:21:37.917Z,1008.96
2023-01-10T03:22:37.901Z,1008.97
2023-01-10T03:23:37.908Z,1009.01
2023-01-10T03:24:37.912Z,1009.02
2023-01-10T03:25:36.461Z,1009.05
2023-01-10T03:26:37.875Z,1009.02
2023-01-10T03:27:36.641Z,1009.06
2023-01-10T03:28:36.434Z,1009.10
2023-01-10T03:29:37.847Z,1009.08
2023-01-10T03:30:37.934Z,1009.12
2023-01-10T03:31:36.426Z,1009.10
2023-01-10T03:32:36.394Z,1009.15
2023-01-10T03:33:36.393Z,1009.24
2023-01-10T03:34:36.595Z,1009.26
2023-01-10T03:35:37.295Z,1009.27
2023-01-10T03:36:36.400Z,1009.32
2023-01-10T03:37:36.358Z,1009.34
2023-01-10T03:38:37.289Z,1009.34
2023-01-10T03:39:37.261Z,1009.40
2023-01-10T03:40:37.728Z,1009.37
2023-01-10T03:41:36.399Z,1009.43
2023-01-10T03:42:37.360Z,1009.41
2023-01-10T03:43:37.705Z,1009.43
2023-01-10T03:44:37.706Z,1009.41
2023-01-10T03:45:36.253Z,1009.44
2023-01-10T03:46:36.289Z,1009.44
2023-01-10T03:47:36.226Z,1009.47
2023-01-10T03:48:37.767Z,1009.48
2023-01-10T03:49:36.195Z,1009.49
2023-01-10T03:50:37.609Z,1009.54
2023-01-10T03:51:37.638Z,1009.55
2023-01-10T03:52:36.176Z,1009.54
2023-01-10T03:53:37.604Z,1009.61
2023-01-10T03:54:36.257Z,1009.56
2023-01-10T03:55:36.162Z,1009.64
2023-01-10T03:56:37.550Z,1009.59
2023-01-10T03:57:37.545Z,1009.59
2023-01-10T03:58:37.541Z,1009.63
2023-01-10T03:59:36.109Z,1009.64
2023-01-10T04:00:37.551Z,1009.66
2023-01-10T04:01:37.688Z,1009.66
2023-01-10T04:02:36.070Z,1009.66
2023-01-10T04:03:37.506Z,1009.71
2023-01-10T04:04:37.488Z,1009.67
2023-01-10T04:05:37.471Z,1009.68
2023-01-10T04:06:37.460Z,1009.66
2023-01-10T04:07:37.455Z,1009.69
2023-01-10T04:08:37.429Z,1009.70
2023-01-10T04:09:35.989Z,1009.74
2023-01-10T04:10:37.426Z,1009.71
2023-01-10T04:11:37.402Z,1009.71
2023-01-10T04:12:36.076Z,1009.75
2023-01-10T04:13:35.969Z,1009.77
2023-01-10T04:14:37.415Z,1009.79
2023-01-10T04:15:36.074Z,1009.80
2023-01-10T04:16:36.024Z,1009.83
2023-01-10T04:17:37.375Z,1009.81
2023-01-10T04:18:35.952Z,1009.82
2023-01-10T04:19:35.884Z,1009.84
2023-01-10T04:20:37.322Z,1009.85
2023-01-10T04:21:35.868Z,1009.88
2023-01-10T04:22:37.292Z,1009.88
2023-01-10T04:23:36.808Z,1009.91
2023-01-10T04:24:37.328Z,1009.86
2023-01-10T04:25:35.823Z,1009.86
2023-01-10T04:26:35.933Z,1009.94
2023-01-10T04:27:37.227Z,1009.92
2023-01-10T04:28:37.235Z,1009.91
2023-01-10T04:29:37.210Z,1009.97
2023-01-10T04:30:35.790Z,1009.97
2023-01-10T04:31:37.251Z,1010.01
2023-01-10T04:32:37.193Z,1010.00
2023-01-10T04:33:37.191Z,1010.02
2023-01-10T04:34:37.184Z,1010.03
2023-01-10T04:35:35.748Z,1010.08
2023-01-10T04:36:37.183Z,1010.09
2023-01-10T04:37:37.143Z,1010.07
2023-01-10T04:38:35.706Z,1010.09
2023-01-10T04:39:37.127Z,1010.07
2023-01-10T04:40:37.096Z,1010.04
2023-01-10T04:41:35.650Z,1010.03
2023-01-10T04:42:35.714Z,1010.07
2023-01-10T04:43:37.068Z,1010.06
2023-01-10T04:44:37.078Z,1010.09
2023-01-10T04:45:37.130Z,1010.07
2023-01-10T04:46:37.034Z,1010.09
2023-01-10T04:47:37.026Z,1010.04
2023-01-10T04:48:37.079Z,1010.07
2023-01-10T04:49:35.565Z,1010.08
2023-01-10T04:50:35.575Z,1010.02
2023-01-10T04:51:36.986Z,1010.08
2023-01-10T04:52:36.965Z,1010.14
2023-01-10T04:53:35.532Z,1010.11
2023-01-10T04:54:36.995Z,1010.14
2023-01-10T04:55:36.950Z,1010.14
2023-01-10T04:56:36.947Z,1010.14
2023-01-10T04:57:36.948Z,1010.16
2023-01-10T04:58:35.476Z,1010.22
2023-01-10T04:59:35.467Z,1010.17
2023-01-10T05:00:37.002Z,1010.22
2023-01-10T05:01:36.888Z,1010.20
2023-01-10T05:02:36.995Z,1010.24
2023-01-10T05:03:36.868Z,1010.27
2023-01-10T05:04:36.884Z,1010.25
2023-01-10T05:05:36.850Z,1010.27
2023-01-10T05:06:35.525Z,1010.30
2023-01-10T05:07:36.819Z,1010.33
2023-01-10T05:08:36.406Z,1010.30
2023-01-10T05:09:36.810Z,1010.39
2023-01-10T05:10:36.279Z,1010.35
2023-01-10T05:11:36.778Z,1010.39
2023-01-10T05:12:36.790Z,1010.41
2023-01-10T05:13:35.934Z,1010.42
2023-01-10T05:14:36.749Z,1010.38
2023-01-10T05:15:36.749Z,1010.38
2023-01-10T05:16:36.792Z,1010.42
2023-01-10T05:17:35.272Z,1010.39
2023-01-10T05:18:36.748Z,1010.44
2023-01-10T05:19:36.699Z,1010.50
2023-01-10T05:20:36.692Z,1010.53
2023-01-10T05:21:36.699Z,1010.52
2023-01-10T05:22:35.281Z,1010.56
2023-01-10T05:23:36.661Z,1010.57
2023-01-10T05:24:35.229Z,1010.57
2023-01-10T05:25:36.659Z,1010.60
2023-01-10T05:26:36.630Z,1010.61
2023-01-10T05:27:36.612Z,1010.59
2023-01-10T05:28:35.152Z,1010.66
2023-01-10T05:29:35.152Z,1010.68
2023-01-10T05:30:36.571Z,1010.67
2023-01-10T05:31:35.231Z,1010.71
2023-01-10T05:32:36.541Z,1010.77
2023-01-10T05:33:35.091Z,1010.76
2023-01-10T05:34:35.091Z,1010.74
2023-01-10T05:35:35.091Z,1010.77
2023-01-10T05:36:36.511Z,1010.77
2023-01-10T05:37:37.789Z,1010.84
2023-01-10T05:38:36.499Z,1010.83
2023-01-10T05:39:35.044Z,1010.88
2023-01-10T05:40:36.472Z,1010.92
2023-01-10T05:41:35.033Z,1010.94
2023-01-10T05:42:35.004Z,1010.93
2023-01-10T05:43:36.467Z,1010.97
2023-01-10T05:44:36.423Z,1011.01
2023-01-10T05:45:34.987Z,1011.04
2023-01-10T05:46:36.438Z,1011.04
2023-01-10T05:47:34.980Z,1011.05
2023-01-10T05:48:36.374Z,1010.99
2023-01-10T05:49:34.933Z,1011.01
2023-01-10T05:50:36.382Z,1011.00
2023-01-10T05:51:34.974Z,1011.01
2023-01-10T05:52:34.905Z,1011.07
2023-01-10T05:53:36.376Z,1011.07
2023-01-10T05:54:34.885Z,1011.10
2023-01-10T05:55:36.337Z,1011.07
2023-01-10T05:56:36.291Z,1011.13
2023-01-10T05:57:34.869Z,1011.14
2023-01-10T05:58:36.280Z,1011.17
2023-01-10T05:59:34.819Z,1011.18
2023-01-10T06:00:36.257Z,1011.25
2023-01-10T06:01:36.019Z,1011.21
2023-01-10T06:02:36.329Z,1011.26
2023-01-10T06:03:34.892Z,1011.28
2023-01-10T06:04:36.221Z,1011.27
2023-01-10T06:05:36.190Z,1011.32
2023-01-10T06:06:36.185Z,1011.28
2023-01-10T06:07:36.186Z,1011.35
2023-01-10T06:08:36.161Z,1011.33
2023-01-10T06:09:34.739Z,1011.33
2023-01-10T06:10:36.149Z,1011.33
2023-01-10T06:11:36.129Z,1011.34
2023-01-10T06:12:34.743Z,1011.29
2023-01-10T06:13:35.648Z,1011.36
2023-01-10T06:14:36.129Z,1011.37
2023-01-10T06:15:36.221Z,1011.36
2023-01-10T06:16:34.692Z,1011.36
2023-01-10T06:17:34.669Z,1011.43
2023-01-10T06:18:36.069Z,1011.39
2023-01-10T06:19:36.038Z,1011.39
2023-01-10T06:20:36.042Z,1011.41
2023-01-10T06:21:36.052Z,1011.40
2023-01-10T06:22:36.010Z,1011.48
2023-01-10T06:23:36.001Z,1011.47
2023-01-10T06:24:36.023Z,1011.48
2023-01-10T06:25:35.991Z,1011.50
2023-01-10T06:26:35.989Z,1011.54
2023-01-10T06:27:36.009Z,1011.56
2023-01-10T06:28:35.470Z,1011.58
2023-01-10T06:29:35.963Z,1011.57
2023-01-10T06:30:35.933Z,1011.55
2023-01-10T06:31:34.544Z,1011.49
2023-01-10T06:32:35.233Z,1011.52
2023-01-10T06:33:34.492Z,1011.51
2023-01-10T06:34:35.419Z,1011.51
2023-01-10T06:35:34.629Z,1011.51
2023-01-10T06:36:35.880Z,1011.52
2023-01-10T06:37:35.353Z,1011.51
2023-01-10T06:38:35.842Z,1011.54
2023-01-10T06:39:35.922Z,1011.51
2023-01-10T06:40:34.458Z,1011.56
2023-01-10T06:41:35.823Z,1011.56
2023-01-10T06:42:34.367Z,1011.59
2023-01-10T06:43:34.366Z,1011.54
2023-01-10T06:44:35.784Z,1011.56
2023-01-10T06:45:35.815Z,1011.59
2023-01-10T06:46:35.774Z,1011.58
2023-01-10T06:47:35.771Z,1011.63
2023-01-10T06:48:35.755Z,1011.66
2023-01-10T06:49:35.736Z,1011.71
2023-01-10T06:50:34.274Z,1011.75
2023-01-10T06:51:35.824Z,1011.76
2023-01-10T06:52:35.739Z,1011.76
2023-01-10T06:53:35.775Z,1011.81
2023-01-10T06:54:35.688Z,1011.90
2023-01-10T06:55:34.281Z,1011.96
2023-01-10T06:56:34.237Z,1011.96
2023-01-10T06:57:35.753Z,1011.96
2023-01-10T06:58:35.175Z,1012.02
2023-01-10T06:59:35.145Z,1011.96
2023-01-10T07:00:35.148Z,1012.00
2023-01-10T07:01:35.796Z,1011.89
2023-01-10T07:02:35.602Z,1011.83
2023-01-10T07:03:35.694Z,1011.75
2023-01-10T07:04:35.087Z,1011.77
2023-01-10T07:05:35.558Z,1011.78
2023-01-10T07:06:35.562Z,1011.90
2023-01-10T07:07:35.531Z,1011.91
2023-01-10T07:08:35.549Z,1011.96
2023-01-10T07:09:35.637Z,1011.97
2023-01-10T07:10:35.503Z,1012.01
2023-01-10T07:11:35.599Z,1012.01
2023-01-10T07:12:34.999Z,1012.01
2023-01-10T07:13:35.010Z,1012.01
2023-01-10T07:14:35.011Z,1011.99
2023-01-10T07:15:35.470Z,1012.04
2023-01-10T07:16:35.435Z,1012.02
2023-01-10T07:17:35.479Z,1011.97
2023-01-10T07:18:34.923Z,1011.99
2023-01-10T07:19:35.410Z,1012.03
2023-01-10T07:20:33.973Z,1012.06
2023-01-10T07:21:35.481Z,1012.14
2023-01-10T07:22:35.367Z,1012.16
2023-01-10T07:23:34.852Z,1012.15
2023-01-10T07:24:35.338Z,1012.17
2023-01-10T07:25:33.911Z,1012.15
2023-01-10T07:26:35.319Z,1012.16
2023-01-10T07:27:34.854Z,1012.10
2023-01-10T07:28:34.843Z,1012.12
2023-01-10T07:29:35.334Z,1012.22
2023-01-10T07:30:34.799Z,1012.26
2023-01-10T07:31:35.370Z,1012.32
2023-01-10T07:32:34.788Z,1012.32
2023-01-10T07:33:35.306Z,1012.39
2023-01-10T07:34:34.752Z,1012.42
2023-01-10T07:35:35.772Z,1012.46
2023-01-10T07:36:36.108Z,1012.34
2023-01-10T07:37:35.747Z,1012.43
2023-01-10T07:38:35.214Z,1012.45
2023-01-10T07:39:34.789Z,1012.47
2023-01-10T07:40:35.768Z,1012.49
2023-01-10T07:41:35.725Z,1012.53
2023-01-10T07:42:35.712Z,1012.55
2023-01-10T07:43:35.131Z,1012.54
2023-01-10T07:44:34.656Z,1012.55
2023-01-10T07:45:35.706Z,1012.55
2023-01-10T07:46:34.671Z,1012.61
2023-01-10T07:47:35.714Z,1012.60
2023-01-10T07:48:35.670Z,1012.66
2023-01-10T07:49:35.602Z,1012.61
2023-01-10T07:50:35.138Z,1012.61
2023-01-10T07:51:35.657Z,1012.62
2023-01-10T07:52:35.595Z,1012.68
2023-01-10T07:53:35.584Z,1012.70
2023-01-10T07:54:35.164Z,1012.67
2023-01-10T07:55:35.567Z,1012.73
2023-01-10T07:56:35.584Z,1012.76
2023-01-10T07:57:35.579Z,1012.81
2023-01-10T07:58:35.506Z,1012.85
2023-01-10T07:59:35.496Z,1012.87
2023-01-10T08:00:34.989Z,1012.94
2023-01-10T08:01:35.088Z,1012.91
2023-01-10T08:02:35.556Z,1012.95
2023-01-10T08:03:35.726Z,1012.94
2023-01-10T08:04:35.452Z,1012.98
2023-01-10T08:05:35.460Z,1012.94
2023-01-10T08:06:35.429Z,1012.94
2023-01-10T08:07:35.407Z,1012.98
2023-01-10T08:08:34.950Z,1013.01
2023-01-10T08:09:35.430Z,1013.00
2023-01-10T08:10:34.862Z,1012.99
2023-01-10T08:11:35.370Z,1012.96
2023-01-10T08:12:34.839Z,1012.95
2023-01-10T08:13:35.359Z,1012.94
2023-01-10T08:14:34.863Z,1012.89
2023-01-10T08:15:34.444Z,1012.89
2023-01-10T08:16:34.800Z,1012.87
2023-01-10T08:17:34.779Z,1012.90
2023-01-10T08:18:34.810Z,1012.91
2023-01-10T08:19:34.276Z,1012.93
2023-01-10T08:20:34.771Z,1012.96
2023-01-10T08:21:35.282Z,1012.96
2023-01-10T08:22:34.741Z,1012.97
2023-01-10T08:23:34.761Z,1012.89
2023-01-10T08:24:34.721Z,1012.97
2023-01-10T08:25:34.730Z,1012.93
2023-01-10T08:26:34.692Z,1012.96
2023-01-10T08:27:34.773Z,1013.03
2023-01-10T08:28:35.201Z,1013.05
2023-01-10T08:29:35.222Z,1013.06
2023-01-10T08:30:34.701Z,1013.05
2023-01-10T08:31:35.222Z,1013.12
2023-01-10T08:32:34.625Z,1013.08
2023-01-10T08:33:34.673Z,1013.07
2023-01-10T08:34:34.606Z,1013.16
2023-01-10T08:35:34.614Z,1013.10
2023-01-10T08:36:34.094Z,1013.04
2023-01-10T08:37:35.100Z,1013.11
2023-01-10T08:38:34.587Z,1013.09
2023-01-10T08:39:35.107Z,1013.12
2023-01-10T08:40:35.064Z,1013.02
2023-01-10T08:41:34.523Z,1013.06
2023-01-10T08:42:34.048Z,1013.02
2023-01-10T08:43:35.024Z,1013.05
2023-01-10T08:44:35.051Z,1013.10
2023-01-10T08:45:34.071Z,1013.14
2023-01-10T08:46:34.037Z,1013.13
2023-01-10T08:47:35.534Z,1013.13
2023-01-10T08:48:34.957Z,1013.13
2023-01-10T08:49:34.986Z,1013.10
2023-01-10T08:50:34.966Z,1013.13
2023-01-10T08:51:33.968Z,1013.04
2023-01-10T08:52:34.996Z,1013.11
2023-01-10T08:53:34.929Z,1013.08
2023-01-10T08:54:33.133Z,1013.11
2023-01-10T08:55:35.468Z,1013.19
2023-01-10T08:56:35.279Z,1013.21
2023-01-10T08:57:35.068Z,1013.24
2023-01-10T08:58:35.248Z,1013.33
2023-01-10T08:59:34.926Z,1013.23
2023-01-10T09:00:35.457Z,1013.24
2023-01-10T09:01:34.057Z,1013.29
2023-01-10T09:02:33.964Z,1013.30
2023-01-10T09:03:34.920Z,1013.32
2023-01-10T09:04:34.290Z,1013.37
2023-01-10T09:05:34.320Z,1013.35
2023-01-10T09:06:33.791Z,1013.42
2023-01-10T09:07:34.260Z,1013.40
2023-01-10T09:08:34.263Z,1013.42
2023-01-10T09:09:34.812Z,1013.35
2023-01-10T09:10:33.721Z,1013.40
2023-01-10T09:11:34.240Z,1013.42
2023-01-10T09:12:34.619Z,1013.42
2023-01-10T09:13:34.211Z,1013.40
2023-01-10T09:14:34.697Z,1013.42
2023-01-10T09:15:34.797Z,1013.42
2023-01-10T09:16:34.185Z,1013.41
2023-01-10T09:17:34.692Z,1013.42
2023-01-10T09:18:36.599Z,1013.43
2023-01-10T09:19:34.824Z,1013.40
2023-01-10T09:20:34.001Z,1013.42
2023-01-10T09:21:35.481Z,1013.33
2023-01-10T09:22:34.263Z,1013.37
2023-01-10T09:23:36.911Z,1013.42
2023-01-10T09:24:34.603Z,1013.37
2023-01-10T09:25:34.608Z,1013.35
2023-01-10T09:26:34.087Z,1013.35
2023-01-10T09:27:34.603Z,1013.39
2023-01-10T09:28:34.041Z,1013.41
2023-01-10T09:29:34.244Z,1013.51
2023-01-10T09:30:34.772Z,1013.40
2023-01-10T09:31:34.756Z,1013.60
2023-01-10T09:32:34.027Z,1013.40
2023-01-10T09:33:46.400Z,1013.41
2023-01-10T09:34:34.616Z,1013.43
2023-01-10T09:35:35.019Z,1013.44
2023-01-10T09:36:34.713Z,1013.48
2023-01-10T09:37:33.682Z,1013.52
2023-01-10T09:38:36.407Z,1013.49
2023-01-10T09:39:35.036Z,1013.45
2023-01-10T09:40:34.129Z,1013.48
2023-01-10T09:41:34.479Z,1013.50
2023-01-10T09:42:33.436Z,1013.48
2023-01-10T09:43:33.951Z,1013.45
2023-01-10T09:44:34.446Z,1013.44
2023-01-10T09:45:34.414Z,1013.43
2023-01-10T09:46:34.434Z,1013.48
2023-01-10T09:47:33.864Z,1013.48
2023-01-10T09:48:33.321Z,1013.64
2023-01-10T09:49:34.329Z,1013.65
2023-01-10T09:50:33.873Z,1013.62
2023-01-10T09:51:35.660Z,1013.56
2023-01-10T09:52:34.592Z,1013.65
2023-01-10T09:53:34.378Z,1013.69
2023-01-10T09:54:35.199Z,1013.74
2023-01-10T09:55:34.340Z,1013.76
2023-01-10T09:56:34.279Z,1013.75
2023-01-10T09:57:34.385Z,1013.75
2023-01-10T09:58:33.728Z,1013.72
2023-01-10T09:59:33.748Z,1013.76
2023-01-10T10:00:34.209Z,1013.73
2023-01-10T10:01:34.215Z,1013.88
2023-01-10T10:02:33.251Z,1013.76
2023-01-10T10:03:34.412Z,1013.80
2023-01-10T10:04:34.227Z,1013.82
2023-01-10T10:05:34.151Z,1013.76
2023-01-10T10:06:33.659Z,1013.77
2023-01-10T10:07:33.630Z,1013.78
2023-01-10T10:08:33.461Z,1013.82
2023-01-10T10:09:34.136Z,1013.83
2023-01-10T10:10:34.129Z,1013.79
2023-01-10T10:11:33.095Z,1013.76
2023-01-10T10:12:33.632Z,1013.84
2023-01-10T10:13:34.064Z,1013.83
2023-01-10T10:14:33.081Z,1013.81
2023-01-10T10:15:33.495Z,1013.85
2023-01-10T10:16:33.543Z,1013.80
2023-01-10T10:17:34.040Z,1013.85
2023-01-10T10:18:33.534Z,1013.85
2023-01-10T10:19:34.009Z,1013.77
2023-01-10T10:20:34.024Z,1013.85
2023-01-10T10:21:33.471Z,1013.83
2023-01-10T10:22:32.973Z,1013.84
2023-01-10T10:23:34.371Z,1013.77
2023-01-10T10:24:33.990Z,1013.79
2023-01-10T10:25:32.949Z,1013.68
2023-01-10T10:26:33.965Z,1013.74
2023-01-10T10:27:34.461Z,1013.71
2023-01-10T10:28:34.500Z,1013.69
2023-01-10T10:29:33.415Z,1013.62
2023-01-10T10:30:32.886Z,1013.68
2023-01-10T10:31:33.917Z,1013.69
2023-01-10T10:32:33.983Z,1013.65
2023-01-10T10:33:33.369Z,1013.70
2023-01-10T10:34:32.836Z,1013.65
2023-01-10T10:35:32.847Z,1013.68
2023-01-10T10:36:33.316Z,1013.65
2023-01-10T10:37:32.938Z,1013.66
2023-01-10T10:38:32.888Z,1013.61
2023-01-10T10:39:33.281Z,1013.61
2023-01-10T10:40:33.258Z,1013.61
2023-01-10T10:41:32.782Z,1013.65
2023-01-10T10:42:33.271Z,1013.67
2023-01-10T10:43:32.787Z,1013.64
2023-01-10T10:44:32.785Z,1013.65
2023-01-10T10:45:32.546Z,1013.67
2023-01-10T10:46:32.522Z,1013.65
2023-01-10T10:47:32.361Z,1013.68
2023-01-10T10:48:35.180Z,1013.65
2023-01-10T10:49:31.758Z,1013.64
2023-01-10T10:50:33.181Z,1013.69
2023-01-10T10:51:32.641Z,1013.66
2023-01-10T10:52:32.681Z,1013.62
2023-01-10T10:53:32.147Z,1013.63
2023-01-10T10:54:33.103Z,1013.66
2023-01-10T10:55:32.593Z,1013.61
2023-01-10T10:56:32.662Z,1013.62
2023-01-10T10:57:32.125Z,1013.62
2023-01-10T10:58:33.611Z,1013.63
2023-01-10T10:59:33.079Z,1013.45
2023-01-10T11:00:33.042Z,1013.45
2023-01-10T11:01:32.680Z,1013.46
2023-01-10T11:02:35.140Z,1013.57
2023-01-10T11:03:33.703Z,1013.53
2023-01-10T11:04:33.615Z,1013.48
2023-01-10T11:05:33.522Z,1013.42
2023-01-10T11:06:34.187Z,1013.37
2023-01-10T11:07:33.504Z,1013.42
2023-01-10T11:08:32.987Z,1013.40
2023-01-10T11:09:32.383Z,1013.34
2023-01-10T11:10:32.597Z,1013.34
2023-01-10T11:11:31.527Z,1013.35
2023-01-10T11:12:34.667Z,1013.39
2023-01-10T11:13:33.432Z,1013.37
2023-01-10T11:14:32.965Z,1013.28
2023-01-10T11:15:32.896Z,1013.28
2023-01-10T11:16:32.975Z,1013.33
2023-01-10T11:17:32.387Z,1013.30
2023-01-10T11:18:32.907Z,1013.31
2023-01-10T11:19:32.876Z,1013.32
2023-01-10T11:20:32.874Z,1013.32
2023-01-10T11:21:32.849Z,1013.24
2023-01-10T11:22:32.827Z,1013.24
2023-01-10T11:23:32.326Z,1013.29
2023-01-10T11:24:32.804Z,1013.31
2023-01-10T11:25:32.806Z,1013.28
2023-01-10T11:26:31.456Z,1013.29
2023-01-10T11:27:32.966Z,1013.29
2023-01-10T11:28:31.536Z,1013.26
2023-01-10T11:29:32.924Z,1013.29
2023-01-10T11:30:33.778Z,1013.27
2023-01-10T11:31:33.328Z,1013.23
2023-01-10T11:32:33.238Z,1013.22
2023-01-10T11:33:32.413Z,1013.25
2023-01-10T11:34:31.418Z,1013.23
2023-01-10T11:35:31.266Z,1013.27
2023-01-10T11:36:32.715Z,1013.26
2023-01-10T11:37:32.573Z,1013.26
2023-01-10T11:38:31.330Z,1013.14
2023-01-10T11:39:31.314Z,1013.22
2023-01-10T11:40:33.369Z,1013.25
2023-01-10T11:41:32.647Z,1013.23
2023-01-10T11:42:32.611Z,1013.26
2023-01-10T11:43:31.169Z,1013.25
2023-01-10T11:44:32.631Z,1013.25
2023-01-10T11:45:31.223Z,1013.30
2023-01-10T11:46:32.599Z,1013.25
2023-01-10T11:47:38.109Z,1013.23
2023-01-10T11:49:03.333Z,1013.24
2023-01-10T11:49:32.132Z,1013.25
2023-01-10T11:50:32.588Z,1013.21
2023-01-10T11:51:32.323Z,1013.22
2023-01-10T11:52:31.996Z,1013.21
2023-01-10T11:53:32.334Z,1013.22
2023-01-10T11:54:32.013Z,1013.25
2023-01-10T11:55:32.604Z,1013.23
2023-01-10T11:56:31.975Z,1013.22
2023-01-10T11:57:31.946Z,1013.24
2023-01-10T11:58:31.944Z,1013.22
2023-01-10T11:59:32.075Z,1013.21
2023-01-10T12:00:32.745Z,1013.19
2023-01-10T12:01:31.278Z,1013.16
2023-01-10T12:02:31.973Z,1013.13
2023-01-10T12:03:30.965Z,1013.14
2023-01-10T12:04:30.946Z,1013.20
2023-01-10T12:05:32.401Z,1013.18